Terminal Aerodrome Forecast
Issued by NWS Mt. Holly, NJ

Home | Current Version | Previous Version | Text Only | Print | Product List | Glossary On
Versions: 1 2 3 4 5 6 7 8 9 10 11 12 13 14 15 16 17 18 19 20 21
000
FTUS41 KPHI 221728
TAFACY
TAF
KACY 221728Z 2218/2318 28012G18KT P6SM SKC
     FM222000 28014G24KT P6SM SCT060
     FM222300 28009G18KT P6SM SKC
     FM230200 28005KT P6SM SKC
     FM230800 32004KT P6SM SKC
     FM231700 27006KT P6SM SCT250=

USA.gov is the U.S. government's official web portal to all federal, state and local government web resources and services.